createdAt,value
2023-05-10T00:01:14.947Z,89.93
2023-05-10T00:03:41.910Z,90.59
2023-05-10T00:06:08.592Z,90.72
2023-05-10T00:08:35.237Z,90.65
2023-05-10T00:11:01.893Z,90.43
2023-05-10T00:13:28.732Z,90.02
2023-05-10T00:15:55.489Z,89.62
2023-05-10T00:18:22.102Z,89.23
2023-05-10T00:20:49.813Z,88.98
2023-05-10T00:23:16.495Z,89.81
2023-05-10T00:25:43.184Z,89.72
2023-05-10T00:28:09.841Z,89.24
2023-05-10T00:30:36.534Z,90.65
2023-05-10T00:33:03.961Z,91.17
2023-05-10T00:35:30.739Z,90.97
2023-05-10T00:37:57.488Z,91.15
2023-05-10T00:40:24.176Z,92.25
2023-05-10T00:42:50.925Z,90.67
2023-05-10T00:45:17.562Z,90.51
2023-05-10T00:47:44.209Z,90.29
2023-05-10T00:50:11.053Z,90.57
2023-05-10T00:52:37.677Z,90.87
2023-05-10T00:55:05.117Z,89.02
2023-05-10T00:57:31.896Z,89.34
2023-05-10T00:59:58.850Z,90.12
2023-05-10T01:02:25.628Z,90.12
2023-05-10T01:04:53.005Z,89.79
2023-05-10T01:07:19.917Z,92.51
2023-05-10T01:09:46.592Z,90.79
2023-05-10T01:12:13.285Z,90.93
2023-05-10T01:14:40.019Z,90.53
2023-05-10T01:17:07.057Z,90.04
2023-05-10T01:19:35.976Z,89.07
2023-05-10T01:22:32.562Z,89.67
2023-05-10T01:25:05.065Z,90.07
2023-05-10T01:27:59.449Z,89.22
2023-05-10T01:30:34.902Z,88.54
2023-05-10T01:33:27.857Z,88.98
2023-05-10T01:36:09.951Z,90.40
2023-05-10T01:38:50.984Z,89.35
2023-05-10T01:41:27.716Z,90.53
2023-05-10T01:44:06.639Z,88.77
2023-05-10T01:46:38.489Z,89.57
2023-05-10T01:49:09.586Z,89.68
2023-05-10T01:51:41.772Z,89.81
2023-05-10T01:54:08.322Z,90.43
2023-05-10T01:56:34.994Z,88.12
2023-05-10T01:59:02.392Z,87.85
2023-05-10T02:01:29.216Z,86.75
2023-05-10T02:03:56.354Z,87.49
2023-05-10T02:06:23.073Z,88.42
2023-05-10T02:08:50.452Z,89.25
2023-05-10T02:11:17.149Z,87.57
2023-05-10T02:13:44.544Z,89.25
2023-05-10T02:16:11.166Z,90.47
2023-05-10T02:18:37.869Z,89.34
2023-05-10T02:21:04.559Z,89.10
2023-05-10T02:23:31.282Z,88.03
2023-05-10T02:25:58.019Z,90.41
2023-05-10T02:28:24.830Z,91.65
2023-05-10T02:30:52.055Z,89.37
2023-05-10T02:33:19.080Z,89.05
2023-05-10T02:35:45.846Z,86.96
2023-05-10T02:38:12.822Z,87.17
2023-05-10T02:40:39.462Z,88.41
2023-05-10T02:43:06.159Z,88.04
2023-05-10T02:45:32.859Z,90.51
2023-05-10T02:47:59.649Z,89.51
2023-05-10T02:50:27.853Z,88.00
2023-05-10T02:52:57.439Z,87.42
2023-05-10T02:55:26.661Z,88.96
2023-05-10T02:57:55.390Z,87.28
2023-05-10T03:00:22.081Z,86.40
2023-05-10T03:02:48.797Z,85.18
2023-05-10T03:05:15.559Z,86.30
2023-05-10T03:07:42.225Z,85.75
2023-05-10T03:10:09.098Z,86.38
2023-05-10T03:13:13.416Z,85.20
2023-05-10T03:15:55.893Z,85.77
2023-05-10T03:18:24.057Z,86.23
2023-05-10T03:20:56.591Z,86.52
2023-05-10T03:23:52.624Z,85.92
2023-05-10T03:26:27.651Z,84.33
2023-05-10T03:28:54.330Z,84.05
2023-05-10T03:31:21.091Z,84.31
2023-05-10T03:33:49.347Z,84.54
2023-05-10T03:36:15.984Z,86.40
2023-05-10T03:38:42.842Z,87.31
2023-05-10T03:41:09.500Z,87.80
2023-05-10T03:43:37.620Z,86.09
2023-05-10T03:46:04.738Z,84.92
2023-05-10T03:48:31.740Z,87.86
2023-05-10T03:50:58.414Z,87.24
2023-05-10T03:53:25.279Z,87.53
2023-05-10T03:55:52.038Z,87.29
2023-05-10T03:58:19.394Z,87.02
2023-05-10T04:00:46.525Z,88.33
2023-05-10T04:03:13.400Z,89.39
2023-05-10T04:05:40.375Z,89.50
2023-05-10T04:08:07.132Z,88.09
2023-05-10T04:10:33.804Z,87.55
2023-05-10T04:13:00.663Z,87.86
2023-05-10T04:15:27.314Z,85.72
2023-05-10T04:17:54.832Z,86.27
2023-05-10T04:20:21.498Z,86.59
2023-05-10T04:22:48.133Z,86.38
2023-05-10T04:25:14.902Z,87.33
2023-05-10T04:27:41.601Z,88.06
2023-05-10T04:30:08.708Z,85.86
2023-05-10T04:32:35.464Z,86.03
2023-05-10T04:35:04.571Z,85.57
2023-05-10T04:37:31.428Z,88.00
2023-05-10T04:39:58.078Z,89.34
2023-05-10T04:42:24.637Z,88.01
2023-05-10T04:44:53.115Z,87.98
2023-05-10T04:47:19.999Z,87.35
2023-05-10T04:49:46.679Z,88.52
2023-05-10T04:52:13.362Z,86.41
2023-05-10T04:54:40.280Z,89.17
2023-05-10T04:57:06.966Z,87.49
2023-05-10T04:59:33.635Z,89.86
2023-05-10T05:02:00.370Z,89.16
2023-05-10T05:04:27.031Z,89.87
2023-05-10T05:06:54.074Z,88.64
2023-05-10T05:09:20.977Z,88.19
2023-05-10T05:11:47.666Z,86.57
2023-05-10T05:14:14.276Z,86.41
2023-05-10T05:16:40.990Z,86.68
2023-05-10T05:19:07.670Z,87.01
2023-05-10T05:21:34.419Z,88.21
2023-05-10T05:24:01.776Z,87.78
2023-05-10T05:26:28.599Z,88.12
2023-05-10T05:28:55.706Z,87.97
2023-05-10T05:31:22.664Z,88.15
2023-05-10T05:33:49.302Z,87.79
2023-05-10T05:36:15.963Z,88.75
2023-05-10T05:38:43.027Z,87.73
2023-05-10T05:41:09.618Z,87.45
2023-05-10T05:43:38.203Z,88.81
2023-05-10T05:46:05.494Z,88.62
2023-05-10T05:48:32.319Z,88.81
2023-05-10T05:50:59.067Z,88.32
2023-05-10T05:53:25.860Z,88.36
2023-05-10T05:55:56.405Z,87.46
2023-05-10T05:58:23.557Z,87.47
2023-05-10T06:00:50.377Z,87.75
2023-05-10T06:03:17.344Z,86.83
2023-05-10T06:05:44.070Z,86.94
2023-05-10T06:08:10.850Z,86.93
2023-05-10T06:10:37.861Z,87.15
2023-05-10T06:13:04.619Z,87.38
2023-05-10T06:15:31.337Z,87.23
2023-05-10T06:17:58.043Z,87.55
2023-05-10T06:20:24.721Z,88.28
2023-05-10T06:22:51.391Z,89.27
2023-05-10T06:25:19.268Z,89.05
2023-05-10T06:27:49.809Z,88.71
2023-05-10T06:30:18.619Z,90.61
2023-05-10T06:32:46.242Z,90.75
2023-05-10T06:35:12.988Z,89.55
2023-05-10T06:37:39.885Z,89.53
2023-05-10T06:40:07.552Z,89.14
2023-05-10T06:42:34.237Z,88.48
2023-05-10T06:45:01.030Z,88.46
2023-05-10T06:47:27.779Z,88.60
2023-05-10T06:49:54.648Z,88.83
2023-05-10T06:52:21.239Z,89.54
2023-05-10T06:54:47.888Z,87.53
2023-05-10T06:57:27.566Z,87.92
2023-05-10T06:59:58.040Z,87.81
2023-05-10T07:02:24.671Z,88.78
2023-05-10T07:04:53.148Z,88.49
2023-05-10T07:07:20.106Z,87.48
2023-05-10T07:09:46.797Z,87.15
2023-05-10T07:12:15.392Z,87.64
2023-05-10T07:14:43.011Z,87.59
2023-05-10T07:17:09.986Z,88.29
2023-05-10T07:19:37.032Z,87.65
2023-05-10T07:22:03.852Z,87.99
2023-05-10T07:24:30.927Z,87.96
2023-05-10T07:26:57.626Z,88.91
2023-05-10T07:29:24.285Z,89.28
2023-05-10T07:31:51.186Z,89.00
2023-05-10T07:34:17.887Z,89.20
2023-05-10T07:36:44.687Z,88.23
2023-05-10T07:39:12.707Z,87.29
2023-05-10T07:41:43.088Z,87.02
2023-05-10T07:44:09.753Z,87.15
2023-05-10T07:46:36.485Z,88.67
2023-05-10T07:49:03.275Z,88.35
2023-05-10T07:51:29.992Z,88.40
2023-05-10T07:53:56.673Z,88.55
2023-05-10T07:56:28.119Z,88.40
2023-05-10T07:58:55.437Z,88.66
2023-05-10T08:01:22.239Z,87.55
2023-05-10T08:03:49.283Z,87.19
2023-05-10T08:06:16.548Z,86.92
2023-05-10T08:08:43.384Z,88.07
2023-05-10T08:11:10.189Z,87.16
2023-05-10T08:13:36.800Z,86.97
2023-05-10T08:16:03.540Z,87.41
2023-05-10T08:18:30.461Z,88.36
2023-05-10T08:20:57.154Z,89.17
2023-05-10T08:23:23.853Z,89.10
2023-05-10T08:25:50.575Z,89.15
2023-05-10T08:28:17.242Z,88.19
2023-05-10T08:30:43.951Z,89.34
2023-05-10T08:33:10.759Z,88.92
2023-05-10T08:35:37.527Z,89.44
2023-05-10T08:38:04.390Z,90.74
2023-05-10T08:40:31.086Z,90.32
2023-05-10T08:43:08.280Z,89.87
2023-05-10T08:45:38.625Z,89.48
2023-05-10T08:48:06.730Z,89.41
2023-05-10T08:50:33.477Z,90.16
2023-05-10T08:53:02.168Z,89.50
2023-05-10T08:55:28.922Z,88.79
2023-05-10T08:57:55.876Z,89.03
2023-05-10T09:00:24.080Z,89.27
2023-05-10T09:02:51.298Z,90.77
2023-05-10T09:05:18.937Z,89.56
2023-05-10T09:07:45.966Z,89.51
2023-05-10T09:10:12.604Z,88.72
2023-05-10T09:12:39.383Z,88.94
2023-05-10T09:15:07.171Z,89.38
2023-05-10T09:17:33.977Z,89.18
2023-05-10T09:20:01.325Z,88.46
2023-05-10T09:22:28.296Z,88.85
2023-05-10T09:25:14.594Z,89.03
2023-05-10T09:27:42.261Z,89.48
2023-05-10T09:30:09.562Z,88.23
2023-05-10T09:32:48.149Z,87.90
2023-05-10T09:35:22.657Z,87.63
2023-05-10T09:37:50.936Z,87.41
2023-05-10T09:40:19.057Z,88.66
2023-05-10T09:42:55.724Z,87.94
2023-05-10T09:45:23.439Z,87.80
2023-05-10T09:47:50.186Z,86.60
2023-05-10T09:50:17.293Z,87.20
2023-05-10T09:52:53.780Z,87.61
2023-05-10T09:55:24.378Z,87.13
2023-05-10T09:57:59.726Z,87.16
2023-05-10T10:00:27.198Z,87.98
2023-05-10T10:03:00.444Z,87.99
2023-05-10T10:05:34.267Z,88.43
2023-05-10T10:08:02.761Z,87.38
2023-05-10T10:10:29.411Z,87.81
2023-05-10T10:12:56.447Z,87.64
2023-05-10T10:15:23.783Z,87.43
2023-05-10T10:17:51.205Z,87.73
2023-05-10T10:20:18.851Z,87.45
2023-05-10T10:22:46.713Z,87.30
2023-05-10T10:25:15.149Z,87.21
2023-05-10T10:28:14.903Z,88.17
2023-05-10T10:30:49.323Z,88.37
2023-05-10T10:33:37.931Z,88.38
2023-05-10T10:36:05.030Z,88.85
2023-05-10T10:38:49.333Z,90.20
2023-05-10T10:41:51.383Z,89.85
2023-05-10T10:44:26.981Z,90.11
2023-05-10T10:47:12.600Z,88.17
2023-05-10T10:49:42.644Z,87.98
2023-05-10T10:52:40.788Z,87.60
2023-05-10T10:55:09.437Z,87.96
2023-05-10T10:57:45.292Z,88.71
2023-05-10T11:00:34.172Z,88.72
2023-05-10T11:03:05.423Z,88.14
2023-05-10T11:05:47.807Z,87.36
2023-05-10T11:08:14.379Z,87.97
2023-05-10T11:10:49.711Z,87.62
2023-05-10T11:13:16.411Z,88.22
2023-05-10T11:15:49.445Z,87.76
2023-05-10T11:18:26.554Z,88.64
2023-05-10T11:21:08.314Z,88.42
2023-05-10T11:23:40.985Z,87.64
2023-05-10T11:26:10.617Z,87.03
2023-05-10T11:28:47.538Z,86.77
2023-05-10T11:31:17.878Z,87.96
2023-05-10T11:33:49.056Z,87.58
2023-05-10T11:36:17.138Z,87.37
2023-05-10T11:38:43.811Z,86.40
2023-05-10T11:41:13.767Z,85.78
2023-05-10T11:43:40.801Z,86.52
2023-05-10T11:46:07.787Z,87.41
2023-05-10T11:48:34.526Z,87.40
2023-05-10T11:51:03.014Z,86.64
2023-05-10T11:53:33.353Z,86.21
2023-05-10T11:56:10.239Z,86.35
2023-05-10T11:58:37.850Z,86.72
2023-05-10T12:01:05.460Z,86.14
2023-05-10T12:03:32.351Z,85.69
2023-05-10T12:05:59.448Z,85.77
2023-05-10T12:08:27.314Z,85.58
2023-05-10T12:11:11.485Z,85.34
2023-05-10T12:13:41.936Z,85.24
2023-05-10T12:16:19.095Z,85.27
2023-05-10T12:18:46.417Z,84.59
2023-05-10T12:21:13.302Z,84.29
2023-05-10T12:23:40.416Z,84.68
2023-05-10T12:26:07.264Z,83.96
2023-05-10T12:28:34.082Z,83.12
2023-05-10T12:31:00.901Z,82.96
2023-05-10T12:33:27.601Z,84.17
2023-05-10T12:35:55.326Z,84.32
2023-05-10T12:38:39.174Z,83.39
2023-05-10T12:41:11.674Z,84.14
2023-05-10T12:43:38.879Z,83.84
2023-05-10T12:46:15.746Z,82.52
2023-05-10T12:48:43.491Z,83.74
2023-05-10T12:51:14.201Z,83.36
2023-05-10T12:53:42.723Z,82.67
2023-05-10T12:56:11.324Z,82.00
2023-05-10T12:58:38.030Z,82.48
2023-05-10T13:01:05.857Z,82.15
2023-05-10T13:03:32.658Z,83.37
2023-05-10T13:05:59.420Z,83.18
2023-05-10T13:08:26.257Z,83.09
2023-05-10T13:10:52.899Z,81.65
2023-05-10T13:13:19.567Z,82.15
2023-05-10T13:15:46.254Z,82.29
2023-05-10T13:18:12.934Z,81.90
2023-05-10T13:20:39.809Z,82.61
2023-05-10T13:23:06.518Z,82.37
2023-05-10T13:25:33.394Z,82.46
2023-05-10T13:28:00.150Z,82.11
2023-05-10T13:30:26.839Z,82.61
2023-05-10T13:32:53.620Z,81.41
2023-05-10T13:35:20.403Z,81.51
2023-05-10T13:37:47.101Z,81.90
2023-05-10T13:40:14.704Z,82.55
2023-05-10T13:42:41.984Z,81.95
2023-05-10T13:45:08.979Z,81.92
2023-05-10T13:47:35.734Z,81.37
2023-05-10T13:50:02.966Z,81.29
2023-05-10T13:52:29.598Z,79.57
2023-05-10T13:54:56.381Z,80.53
2023-05-10T13:57:24.068Z,80.99
2023-05-10T13:59:51.302Z,79.75
2023-05-10T14:02:18.095Z,80.32
2023-05-10T14:04:44.848Z,79.39
2023-05-10T14:07:11.543Z,78.85
2023-05-10T14:09:38.270Z,79.03
2023-05-10T14:12:04.976Z,79.84
2023-05-10T14:14:31.741Z,80.95
2023-05-10T14:16:58.513Z,79.89
2023-05-10T14:19:25.149Z,79.50
2023-05-10T14:21:53.036Z,80.32
2023-05-10T14:24:19.601Z,79.00
2023-05-10T14:26:46.244Z,79.12
2023-05-10T14:29:12.965Z,79.60
2023-05-10T14:31:39.814Z,79.37
2023-05-10T14:34:06.807Z,79.86
2023-05-10T14:36:33.639Z,80.04
2023-05-10T14:39:00.371Z,79.98
2023-05-10T14:41:27.254Z,79.50
2023-05-10T14:43:54.260Z,79.94
2023-05-10T14:46:21.158Z,80.59
2023-05-10T14:48:47.871Z,79.81
2023-05-10T14:51:14.846Z,79.42
2023-05-10T14:53:41.711Z,78.89
2023-05-10T14:56:08.564Z,80.71
2023-05-10T14:58:35.232Z,79.15
2023-05-10T15:01:02.229Z,79.30
2023-05-10T15:03:30.014Z,79.52
2023-05-10T15:05:58.764Z,79.22
2023-05-10T15:08:28.828Z,79.02
2023-05-10T15:10:56.963Z,78.33
2023-05-10T15:13:23.644Z,79.44
2023-05-10T15:15:50.660Z,80.26
2023-05-10T15:18:17.903Z,79.14
2023-05-10T15:20:44.722Z,79.06
2023-05-10T15:23:11.391Z,79.56
2023-05-10T15:25:38.526Z,79.10
2023-05-10T15:28:05.466Z,80.09
2023-05-10T15:30:32.148Z,79.48
2023-05-10T15:32:58.918Z,79.11
2023-05-10T15:35:27.018Z,78.73
2023-05-10T15:37:53.672Z,78.28
2023-05-10T15:40:20.466Z,78.87
2023-05-10T15:42:47.172Z,79.24
2023-05-10T15:45:13.920Z,79.11
2023-05-10T15:47:40.723Z,79.06
2023-05-10T15:50:08.412Z,80.58
2023-05-10T15:52:36.141Z,79.29
2023-05-10T15:55:03.630Z,80.85
2023-05-10T15:57:30.425Z,80.18
2023-05-10T15:59:57.155Z,80.67
2023-05-10T16:02:23.999Z,79.76
2023-05-10T16:04:51.663Z,79.63
2023-05-10T16:07:18.457Z,80.91
2023-05-10T16:09:45.149Z,80.20
2023-05-10T16:12:11.743Z,81.54
2023-05-10T16:14:38.404Z,81.91
2023-05-10T16:17:05.217Z,81.53
2023-05-10T16:19:32.231Z,80.71
2023-05-10T16:21:58.975Z,80.56
2023-05-10T16:24:26.376Z,80.44
2023-05-10T16:26:53.131Z,81.09
2023-05-10T16:29:19.819Z,80.91
2023-05-10T16:31:46.994Z,81.12
2023-05-10T16:34:13.660Z,81.65
2023-05-10T16:36:40.502Z,80.68
2023-05-10T16:39:07.424Z,80.53
2023-05-10T16:41:34.512Z,81.57
2023-05-10T16:44:01.793Z,81.72
2023-05-10T16:46:28.477Z,81.65
2023-05-10T16:48:55.184Z,81.38
2023-05-10T16:51:21.835Z,80.84
2023-05-10T16:53:48.421Z,81.60
2023-05-10T16:56:15.081Z,82.37
2023-05-10T16:58:41.844Z,82.04
2023-05-10T17:01:08.564Z,82.96
2023-05-10T17:03:35.817Z,83.18
2023-05-10T17:06:02.625Z,83.64
2023-05-10T17:08:29.217Z,82.57
2023-05-10T17:10:56.395Z,83.31
2023-05-10T17:13:23.303Z,84.00
2023-05-10T17:15:50.093Z,83.73
2023-05-10T17:18:17.466Z,84.14
2023-05-10T17:20:45.165Z,84.29
2023-05-10T17:23:11.922Z,85.00
2023-05-10T17:25:38.759Z,85.06
2023-05-10T17:28:05.550Z,87.05
2023-05-10T17:30:32.847Z,87.48
2023-05-10T17:33:00.233Z,86.40
2023-05-10T17:35:27.021Z,86.19
2023-05-10T17:37:53.876Z,86.35
2023-05-10T17:40:20.561Z,84.93
2023-05-10T17:42:47.252Z,85.44
2023-05-10T17:45:13.941Z,84.52
2023-05-10T17:47:40.691Z,84.28
2023-05-10T17:50:07.596Z,86.68
2023-05-10T17:52:34.299Z,86.99
2023-05-10T17:55:01.017Z,86.67
2023-05-10T17:57:28.130Z,88.47
2023-05-10T17:59:54.863Z,89.04
2023-05-10T18:02:21.549Z,89.66
2023-05-10T18:04:49.436Z,88.35
2023-05-10T18:07:16.551Z,87.86
2023-05-10T18:09:43.237Z,89.08
2023-05-10T18:12:09.821Z,88.21
2023-05-10T18:14:41.244Z,88.65
2023-05-10T18:17:09.272Z,88.75
2023-05-10T18:19:36.069Z,90.22
2023-05-10T18:22:02.859Z,91.71
2023-05-10T18:26:59.156Z,88.41
2023-05-10T18:29:26.088Z,87.65
2023-05-10T18:31:52.784Z,87.80
2023-05-10T18:34:19.399Z,87.08
2023-05-10T18:36:46.361Z,87.13
2023-05-10T18:39:13.351Z,87.04
2023-05-10T18:41:40.090Z,84.61
2023-05-10T18:44:06.719Z,85.17
2023-05-10T18:46:33.792Z,87.38
2023-05-10T18:49:00.513Z,87.99
2023-05-10T18:51:29.573Z,86.96
2023-05-10T18:53:56.354Z,86.02
2023-05-10T18:56:23.768Z,87.37
2023-05-10T18:58:50.368Z,89.06
2023-05-10T19:01:17.189Z,87.63
2023-05-10T19:03:43.824Z,88.34
2023-05-10T19:06:10.948Z,88.50
2023-05-10T19:08:37.707Z,89.34
2023-05-10T19:11:04.366Z,88.97
2023-05-10T19:13:31.157Z,88.16
2023-05-10T19:16:10.927Z,89.54
2023-05-10T19:18:39.398Z,89.73
2023-05-10T19:21:10.439Z,90.12
2023-05-10T19:23:39.663Z,88.11
2023-05-10T19:26:06.395Z,87.63
2023-05-10T19:28:34.215Z,88.53
2023-05-10T19:31:01.828Z,88.92
2023-05-10T19:33:28.745Z,88.15
2023-05-10T19:35:55.675Z,88.67
2023-05-10T19:38:22.962Z,88.42
2023-05-10T19:40:59.557Z,87.53
2023-05-10T19:43:26.810Z,87.52
2023-05-10T19:45:53.995Z,86.35
2023-05-10T19:48:20.735Z,84.68
2023-05-10T19:50:47.327Z,85.19
2023-05-10T19:53:14.080Z,87.22
2023-05-10T19:55:40.789Z,88.59
2023-05-10T19:58:07.381Z,87.35
2023-05-10T20:00:34.207Z,86.55
2023-05-10T20:03:01.319Z,86.09
2023-05-10T20:05:28.818Z,86.95
2023-05-10T20:07:55.501Z,87.50
2023-05-10T20:10:22.113Z,87.45
2023-05-10T20:12:52.891Z,87.40
2023-05-10T20:15:21.067Z,87.02
2023-05-10T20:17:48.090Z,84.72
2023-05-10T20:20:16.630Z,84.76
2023-05-10T20:22:47.172Z,86.20
2023-05-10T20:25:14.339Z,86.14
2023-05-10T20:27:41.000Z,88.41
2023-05-10T20:30:08.071Z,89.52
2023-05-10T20:32:34.813Z,87.98
2023-05-10T20:35:01.633Z,87.36
2023-05-10T20:37:28.730Z,86.78
2023-05-10T20:39:55.600Z,87.11
2023-05-10T20:42:22.401Z,87.03
2023-05-10T20:44:49.889Z,86.35
2023-05-10T20:47:16.708Z,86.89
2023-05-10T20:49:43.700Z,88.12
2023-05-10T20:52:10.403Z,87.75
2023-05-10T20:54:37.113Z,86.29
2023-05-10T20:57:03.902Z,85.46
2023-05-10T20:59:30.641Z,87.74
2023-05-10T21:01:57.701Z,89.01
2023-05-10T21:04:25.583Z,88.74
2023-05-10T21:06:53.074Z,87.61
2023-05-10T21:09:19.811Z,86.04
2023-05-10T21:11:46.641Z,85.59
2023-05-10T21:14:13.251Z,86.43
2023-05-10T21:16:40.162Z,87.06
2023-05-10T21:19:09.662Z,85.44
2023-05-10T21:21:36.423Z,84.65
2023-05-10T21:24:03.309Z,85.92
2023-05-10T21:26:29.952Z,86.26
2023-05-10T21:28:56.628Z,87.58
2023-05-10T21:31:23.443Z,85.13
2023-05-10T21:33:50.263Z,88.23
2023-05-10T21:36:16.893Z,87.94
2023-05-10T21:38:44.553Z,87.76
2023-05-10T21:41:11.250Z,86.44
2023-05-10T21:43:38.049Z,85.60
2023-05-10T21:46:04.814Z,87.97
2023-05-10T21:48:31.486Z,86.18
2023-05-10T21:50:58.848Z,85.36
2023-05-10T21:53:25.485Z,84.27
2023-05-10T21:55:52.314Z,84.29
2023-05-10T21:58:19.012Z,84.77
2023-05-10T22:00:45.620Z,85.57
2023-05-10T22:03:12.415Z,84.78
2023-05-10T22:05:39.286Z,86.19
2023-05-10T22:08:06.582Z,86.93
2023-05-10T22:10:33.387Z,85.83
2023-05-10T22:13:00.364Z,85.92
2023-05-10T22:15:27.215Z,85.60
2023-05-10T22:17:54.020Z,87.08
2023-05-10T22:20:21.209Z,87.26
2023-05-10T22:22:47.930Z,86.48
2023-05-10T22:25:14.741Z,87.45
2023-05-10T22:27:41.490Z,86.87
2023-05-10T22:30:08.697Z,87.24
2023-05-10T22:32:35.460Z,86.77
2023-05-10T22:35:02.378Z,88.61
2023-05-10T22:37:29.078Z,87.92
2023-05-10T22:39:55.755Z,87.73
2023-05-10T22:42:22.367Z,87.98
2023-05-10T22:44:49.012Z,87.26
2023-05-10T22:47:16.487Z,87.42
2023-05-10T22:49:43.140Z,88.54
2023-05-10T22:52:10.838Z,88.67
2023-05-10T22:54:37.472Z,88.82
2023-05-10T22:57:04.153Z,88.79
2023-05-10T22:59:30.967Z,87.53
2023-05-10T23:01:57.667Z,87.78
2023-05-10T23:04:24.298Z,87.81
2023-05-10T23:06:50.994Z,87.43
2023-05-10T23:09:17.582Z,86.45
2023-05-10T23:11:44.278Z,86.56
2023-05-10T23:14:11.047Z,87.15
2023-05-10T23:16:37.772Z,86.02
2023-05-10T23:19:04.595Z,87.04
2023-05-10T23:21:32.251Z,86.12
2023-05-10T23:23:59.395Z,86.28
2023-05-10T23:26:26.015Z,85.40
2023-05-10T23:28:52.651Z,84.85
2023-05-10T23:31:19.378Z,85.79
2023-05-10T23:33:46.159Z,85.62
2023-05-10T23:36:12.772Z,86.13
2023-05-10T23:38:39.654Z,85.51
2023-05-10T23:41:06.280Z,86.43
2023-05-10T23:43:32.921Z,86.20
2023-05-10T23:45:59.732Z,85.73
2023-05-10T23:48:26.411Z,85.66
2023-05-10T23:50:53.105Z,87.35
2023-05-10T23:53:19.859Z,87.23
2023-05-10T23:55:46.831Z,85.40
2023-05-10T23:58:13.469Z,85.92
